createdAt,value
2022-10-22T00:07:32.367Z,99.99
2022-10-22T00:17:32.502Z,99.99
2022-10-22T00:27:32.684Z,99.99
2022-10-22T00:37:33.115Z,99.99
2022-10-22T00:47:32.989Z,99.99
2022-10-22T00:57:33.139Z,99.99
2022-10-22T01:07:33.319Z,99.99
2022-10-22T01:17:33.455Z,99.99
2022-10-22T01:27:33.637Z,99.99
2022-10-22T01:37:33.783Z,99.99
2022-10-22T01:47:33.971Z,99.99
2022-10-22T01:57:34.413Z,99.99
2022-10-22T02:07:34.269Z,99.99
2022-10-22T02:17:34.404Z,99.99
2022-10-22T02:27:34.587Z,99.99
2022-10-22T02:37:34.721Z,99.99
2022-10-22T02:47:35.213Z,99.99
2022-10-22T02:57:35.031Z,99.99
2022-10-22T03:07:35.208Z,99.99
2022-10-22T03:17:35.338Z,99.99
2022-10-22T03:27:35.523Z,99.99
2022-10-22T03:37:35.658Z,99.99
2022-10-22T03:47:35.966Z,99.26
2022-10-22T03:57:36.002Z,98.44
2022-10-22T04:07:36.187Z,96.26
2022-10-22T04:17:36.323Z,94.38
2022-10-22T04:27:36.532Z,96.30
2022-10-22T04:37:36.742Z,98.59
2022-10-22T04:47:36.892Z,99.20
2022-10-22T04:57:37.273Z,99.99
2022-10-22T05:07:37.580Z,99.99
2022-10-22T05:17:37.645Z,99.99
2022-10-22T05:27:37.970Z,99.99
2022-10-22T05:37:38.039Z,99.99
2022-10-22T05:47:38.035Z,99.99
2022-10-22T05:57:38.321Z,99.99
2022-10-22T06:07:38.401Z,99.99
2022-10-22T06:17:38.545Z,99.99
2022-10-22T06:27:38.872Z,99.99
2022-10-22T06:37:39.291Z,99.99
2022-10-22T06:47:39.627Z,99.99
2022-10-22T06:57:40.573Z,99.99
2022-10-22T07:07:39.573Z,99.99
2022-10-22T07:27:39.900Z,99.99
2022-10-22T07:37:40.201Z,96.84
2022-10-22T07:47:40.214Z,93.91
2022-10-22T07:57:40.142Z,91.80
2022-10-22T08:07:40.330Z,90.96
2022-10-22T08:17:41.025Z,88.15
2022-10-22T08:27:40.763Z,89.10
2022-10-22T08:37:41.085Z,90.86
2022-10-22T08:47:41.027Z,90.31
2022-10-22T08:57:41.176Z,87.74
2022-10-22T09:07:41.716Z,91.02
2022-10-22T09:17:41.825Z,91.22
2022-10-22T09:27:42.060Z,89.62
2022-10-22T09:37:41.753Z,87.88
2022-10-22T09:47:57.315Z,88.02
2022-10-22T09:57:44.460Z,87.03
2022-10-22T10:07:42.872Z,84.47
2022-10-22T10:17:42.830Z,80.66
2022-10-22T10:27:42.576Z,79.02
2022-10-22T10:37:42.724Z,78.27
2022-10-22T10:47:43.429Z,78.31
2022-10-22T10:57:43.394Z,76.90
2022-10-22T11:07:43.222Z,77.73
2022-10-22T11:17:43.349Z,75.72
2022-10-22T11:27:44.291Z,75.46
2022-10-22T11:37:43.874Z,74.85
2022-10-22T11:47:43.969Z,74.88
2022-10-22T11:57:44.478Z,72.90
2022-10-22T12:07:44.333Z,71.06
2022-10-22T12:17:44.365Z,72.30
2022-10-22T12:27:44.781Z,67.09
2022-10-22T12:37:45.063Z,65.72
2022-10-22T12:47:44.917Z,63.06
2022-10-22T12:57:45.080Z,64.55
2022-10-22T13:07:45.351Z,64.55
2022-10-22T13:17:45.810Z,63.98
2022-10-22T13:27:45.704Z,61.91
2022-10-22T13:37:45.929Z,61.05
2022-10-22T13:47:45.945Z,56.49
2022-10-22T13:57:46.103Z,58.29
2022-10-22T14:07:46.388Z,56.57
2022-10-22T14:17:46.536Z,56.20
2022-10-22T14:27:46.678Z,56.07
2022-10-22T14:37:46.765Z,55.40
2022-10-22T14:47:48.193Z,57.22
2022-10-22T14:57:47.161Z,59.20
2022-10-22T15:07:47.323Z,66.11
2022-10-22T15:17:47.747Z,64.70
2022-10-22T15:27:50.372Z,73.18
2022-10-22T15:37:47.813Z,79.63
2022-10-22T15:47:48.412Z,85.78
2022-10-22T15:57:48.152Z,86.67
2022-10-22T16:07:48.267Z,85.80
2022-10-22T16:17:48.401Z,86.65
2022-10-22T16:27:48.588Z,85.78
2022-10-22T16:37:48.719Z,87.73
2022-10-22T16:47:48.979Z,88.18
2022-10-22T16:57:49.014Z,88.52
2022-10-22T17:07:49.309Z,89.28
2022-10-22T17:17:49.561Z,91.80
2022-10-22T17:27:49.554Z,94.63
2022-10-22T17:37:49.693Z,96.10
2022-10-22T17:47:49.897Z,96.51
2022-10-22T17:57:50.050Z,94.32
2022-10-22T18:07:50.350Z,95.65
2022-10-22T18:17:50.690Z,94.38
2022-10-22T18:27:50.523Z,96.61
2022-10-22T18:37:50.660Z,99.20
2022-10-22T18:47:50.999Z,99.99
2022-10-22T18:57:50.919Z,99.99
2022-10-22T19:07:51.104Z,99.99
2022-10-22T19:17:51.244Z,99.99
2022-10-22T19:27:51.685Z,99.99
2022-10-22T19:37:51.903Z,99.99
2022-10-22T19:47:51.898Z,99.99
2022-10-22T19:57:51.870Z,99.99
2022-10-22T20:07:52.052Z,99.99
2022-10-22T20:17:52.180Z,99.99
2022-10-22T20:27:52.399Z,99.99
2022-10-22T20:37:52.649Z,99.99
2022-10-22T20:48:01.881Z,99.99
2022-10-22T20:57:54.127Z,99.99
2022-10-22T21:07:53.108Z,99.99
2022-10-22T21:17:53.190Z,99.99
2022-10-22T21:27:53.395Z,99.99
2022-10-22T21:37:53.573Z,99.99
2022-10-22T21:47:53.770Z,99.99
2022-10-22T21:57:53.952Z,99.99
2022-10-22T22:07:54.276Z,99.99
2022-10-22T22:17:54.297Z,99.99
2022-10-22T22:27:54.481Z,99.99
2022-10-22T22:37:54.758Z,99.99
2022-10-22T22:47:54.864Z,99.99
2022-10-22T22:57:55.016Z,99.99
2022-10-22T23:07:55.202Z,99.99
2022-10-22T23:17:55.337Z,99.99
2022-10-22T23:27:55.527Z,99.99
2022-10-22T23:37:55.664Z,99.99
2022-10-22T23:47:56.117Z,99.99
2022-10-22T23:57:56.064Z,99.99
